sensor_id;sensor_type;location;lat;lon;timestamp;pressure;altitude;pressure_sealevel;temperature
75428;BMP280;64008;55.612;37.698;2023-02-01T00:01:34;98334.13;;;13.15
75428;BMP280;64008;55.612;37.698;2023-02-01T00:03:59;98335.47;;;13.12
75428;BMP280;64008;55.612;37.698;2023-02-01T00:06:25;98336.06;;;13.04
75428;BMP280;64008;55.612;37.698;2023-02-01T00:08:54;98333.03;;;13.16
75428;BMP280;64008;55.612;37.698;2023-02-01T00:11:20;98337.69;;;13.00
75428;BMP280;64008;55.612;37.698;2023-02-01T00:13:45;98338.81;;;12.93
75428;BMP280;64008;55.612;37.698;2023-02-01T00:18:39;98345.16;;;12.92
75428;BMP280;64008;55.612;37.698;2023-02-01T00:21:05;98343.84;;;12.95
75428;BMP280;64008;55.612;37.698;2023-02-01T00:23:34;98345.47;;;12.86
75428;BMP280;64008;55.612;37.698;2023-02-01T00:26:01;98345.72;;;12.89
75428;BMP280;64008;55.612;37.698;2023-02-01T00:28:29;98341.78;;;12.82
75428;BMP280;64008;55.612;37.698;2023-02-01T00:30:59;98342.34;;;12.79
75428;BMP280;64008;55.612;37.698;2023-02-01T00:33:24;98339.50;;;13.09
75428;BMP280;64008;55.612;37.698;2023-02-01T00:35:50;98346.13;;;13.07
75428;BMP280;64008;55.612;37.698;2023-02-01T00:38:16;98343.38;;;12.83
75428;BMP280;64008;55.612;37.698;2023-02-01T00:40:41;98339.53;;;12.99
75428;BMP280;64008;55.612;37.698;2023-02-01T00:43:07;98336.19;;;12.83
75428;BMP280;64008;55.612;37.698;2023-02-01T00:45:32;98344.16;;;12.83
75428;BMP280;64008;55.612;37.698;2023-02-01T00:47:58;98335.16;;;12.84
75428;BMP280;64008;55.612;37.698;2023-02-01T00:50:23;98339.97;;;12.77
75428;BMP280;64008;55.612;37.698;2023-02-01T00:52:49;98337.78;;;12.84
75428;BMP280;64008;55.612;37.698;2023-02-01T00:55:14;98342.66;;;12.72
75428;BMP280;64008;55.612;37.698;2023-02-01T00:57:40;98340.34;;;13.00
75428;BMP280;64008;55.612;37.698;2023-02-01T01:00:06;98347.94;;;13.11
75428;BMP280;64008;55.612;37.698;2023-02-01T01:02:31;98340.91;;;12.91
75428;BMP280;64008;55.612;37.698;2023-02-01T01:04:57;98341.22;;;12.85
75428;BMP280;64008;55.612;37.698;2023-02-01T01:07:22;98341.53;;;12.78
75428;BMP280;64008;55.612;37.698;2023-02-01T01:09:48;98340.34;;;13.00
75428;BMP280;64008;55.612;37.698;2023-02-01T01:12:16;98339.66;;;12.89
75428;BMP280;64008;55.612;37.698;2023-02-01T01:14:41;98340.91;;;12.91
75428;BMP280;64008;55.612;37.698;2023-02-01T01:17:06;98343.41;;;12.78
75428;BMP280;64008;55.612;37.698;2023-02-01T01:19:32;98349.34;;;12.99
75428;BMP280;64008;55.612;37.698;2023-02-01T01:21:57;98341.34;;;13.04
75428;BMP280;64008;55.612;37.698;2023-02-01T01:24:23;98346.19;;;12.97
75428;BMP280;64008;55.612;37.698;2023-02-01T01:26:48;98347.75;;;12.98
75428;BMP280;64008;55.612;37.698;2023-02-01T01:29:14;98351.75;;;13.00
75428;BMP280;64008;55.612;37.698;2023-02-01T01:31:39;98346.94;;;13.02
75428;BMP280;64008;55.612;37.698;2023-02-01T01:34:05;98337.69;;;13.00
75428;BMP280;64008;55.612;37.698;2023-02-01T01:36:30;98341.88;;;13.06
75428;BMP280;64008;55.612;37.698;2023-02-01T01:38:56;98345.19;;;13.22
75428;BMP280;64008;55.612;37.698;2023-02-01T01:41:25;98345.09;;;13.03
75428;BMP280;64008;55.612;37.698;2023-02-01T01:44:02;98342.19;;;12.99
75428;BMP280;64008;55.612;37.698;2023-02-01T01:46:34;98348.13;;;12.86
75428;BMP280;64008;55.612;37.698;2023-02-01T01:51:43;98346.28;;;13.21
75428;BMP280;64008;55.612;37.698;2023-02-01T01:54:25;98357.22;;;13.09
75428;BMP280;64008;55.612;37.698;2023-02-01T01:56:56;98352.91;;;12.84
75428;BMP280;64008;55.612;37.698;2023-02-01T01:59:23;98353.81;;;13.03
75428;BMP280;64008;55.612;37.698;2023-02-01T02:01:49;98355.28;;;12.85
75428;BMP280;64008;55.612;37.698;2023-02-01T02:04:15;98351.13;;;12.74
75428;BMP280;64008;55.612;37.698;2023-02-01T02:06:53;98352.03;;;12.54
75428;BMP280;64008;55.612;37.698;2023-02-01T02:09:20;98350.38;;;12.63
75428;BMP280;64008;55.612;37.698;2023-02-01T02:11:46;98356.75;;;12.67
75428;BMP280;64008;55.612;37.698;2023-02-01T02:14:14;98346.41;;;12.66
75428;BMP280;64008;55.612;37.698;2023-02-01T02:19:29;98356.25;;;12.60
75428;BMP280;64008;55.612;37.698;2023-02-01T02:27:31;98362.22;;;12.81
75428;BMP280;64008;55.612;37.698;2023-02-01T02:30:27;98372.81;;;12.81
75428;BMP280;64008;55.612;37.698;2023-02-01T02:35:59;98369.06;;;12.87
75428;BMP280;64008;55.612;37.698;2023-02-01T02:41:40;98368.09;;;13.07
75428;BMP280;64008;55.612;37.698;2023-02-01T02:44:40;98371.72;;;12.87
75428;BMP280;64008;55.612;37.698;2023-02-01T02:47:38;98366.34;;;12.92
75428;BMP280;64008;55.612;37.698;2023-02-01T02:50:32;98374.97;;;12.69
75428;BMP280;64008;55.612;37.698;2023-02-01T02:53:30;98379.25;;;13.04
75428;BMP280;64008;55.612;37.698;2023-02-01T02:56:21;98376.56;;;12.75
75428;BMP280;64008;55.612;37.698;2023-02-01T02:59:08;98381.53;;;12.82
75428;BMP280;64008;55.612;37.698;2023-02-01T03:01:54;98381.34;;;12.73
75428;BMP280;64008;55.612;37.698;2023-02-01T03:04:38;98375.44;;;12.81
75428;BMP280;64008;55.612;37.698;2023-02-01T03:09:58;98374.44;;;12.72
75428;BMP280;64008;55.612;37.698;2023-02-01T03:12:31;98371.22;;;12.80
75428;BMP280;64008;55.612;37.698;2023-02-01T03:15:18;98379.13;;;12.85
75428;BMP280;64008;55.612;37.698;2023-02-01T03:17:45;98375.06;;;12.98
75428;BMP280;64008;55.612;37.698;2023-02-01T03:20:12;98373.94;;;13.04
75428;BMP280;64008;55.612;37.698;2023-02-01T03:22:40;98370.88;;;12.92
75428;BMP280;64008;55.612;37.698;2023-02-01T03:25:11;98370.38;;;12.85
75428;BMP280;64008;55.612;37.698;2023-02-01T03:27:55;98373.28;;;12.83
75428;BMP280;64008;55.612;37.698;2023-02-01T03:30:26;98370.38;;;12.85
75428;BMP280;64008;55.612;37.698;2023-02-01T03:32:58;98378.72;;;12.68
75428;BMP280;64008;55.612;37.698;2023-02-01T03:38:14;98379.97;;;12.81
75428;BMP280;64008;55.612;37.698;2023-02-01T03:40:44;98375.44;;;12.81
75428;BMP280;64008;55.612;37.698;2023-02-01T03:43:13;98372.88;;;12.71
75428;BMP280;64008;55.612;37.698;2023-02-01T03:45:50;98383.97;;;12.73
75428;BMP280;64008;55.612;37.698;2023-02-01T03:48:18;98385.44;;;12.95
75428;BMP280;64008;55.612;37.698;2023-02-01T03:50:50;98386.25;;;12.95
75428;BMP280;64008;55.612;37.698;2023-02-01T03:53:22;98390.47;;;12.91
75428;BMP280;64008;55.612;37.698;2023-02-01T03:55:49;98389.56;;;13.06
75428;BMP280;64008;55.612;37.698;2023-02-01T03:58:18;98392.06;;;12.92
75428;BMP280;64008;55.612;37.698;2023-02-01T04:00:46;98388.31;;;12.98
75428;BMP280;64008;55.612;37.698;2023-02-01T04:03:15;98398.44;;;12.91
75428;BMP280;64008;55.612;37.698;2023-02-01T04:05:40;98402.72;;;12.87
75428;BMP280;64008;55.612;37.698;2023-02-01T04:08:06;98403.69;;;13.01
75428;BMP280;64008;55.612;37.698;2023-02-01T04:10:31;98397.63;;;12.96
75428;BMP280;64008;55.612;37.698;2023-02-01T04:12:57;98407.22;;;12.86
75428;BMP280;64008;55.612;37.698;2023-02-01T04:15:22;98411.00;;;12.75
75428;BMP280;64008;55.612;37.698;2023-02-01T04:17:48;98413.22;;;13.02
75428;BMP280;64008;55.612;37.698;2023-02-01T04:20:13;98419.66;;;12.86
75428;BMP280;64008;55.612;37.698;2023-02-01T04:22:39;98418.31;;;12.93
75428;BMP280;64008;55.612;37.698;2023-02-01T04:25:05;98426.56;;;12.87
75428;BMP280;64008;55.612;37.698;2023-02-01T04:27:31;98417.50;;;12.93
75428;BMP280;64008;55.612;37.698;2023-02-01T04:29:56;98432.44;;;12.79
75428;BMP280;64008;55.612;37.698;2023-02-01T04:32:22;98435.59;;;12.81
75428;BMP280;64008;55.612;37.698;2023-02-01T04:34:48;98428.97;;;12.78
75428;BMP280;64008;55.612;37.698;2023-02-01T04:37:13;98431.94;;;12.71
75428;BMP280;64008;55.612;37.698;2023-02-01T04:39:39;98429.50;;;12.85
75428;BMP280;64008;55.612;37.698;2023-02-01T04:42:04;98435.84;;;12.84
75428;BMP280;64008;55.612;37.698;2023-02-01T04:44:30;98432.97;;;12.70
75428;BMP280;64008;55.612;37.698;2023-02-01T04:46:55;98440.56;;;12.92
75428;BMP280;64008;55.612;37.698;2023-02-01T04:49:21;98443.25;;;12.87
75428;BMP280;64008;55.612;37.698;2023-02-01T04:51:47;98442.19;;;12.83
75428;BMP280;64008;55.612;37.698;2023-02-01T04:54:13;98451.25;;;12.82
75428;BMP280;64008;55.612;37.698;2023-02-01T04:56:38;98451.69;;;12.95
75428;BMP280;64008;55.612;37.698;2023-02-01T04:59:04;98457.63;;;12.71
75428;BMP280;64008;55.612;37.698;2023-02-01T05:01:30;98456.19;;;12.94
75428;BMP280;64008;55.612;37.698;2023-02-01T05:03:56;98464.38;;;12.98
75428;BMP280;64008;55.612;37.698;2023-02-01T05:06:22;98464.19;;;12.84
75428;BMP280;64008;55.612;37.698;2023-02-01T05:08:48;98451.81;;;12.74
75428;BMP280;64008;55.612;37.698;2023-02-01T05:11:14;98460.16;;;12.91
75428;BMP280;64008;55.612;37.698;2023-02-01T05:13:59;98460.63;;;13.04
75428;BMP280;64008;55.612;37.698;2023-02-01T05:16:25;98464.25;;;13.23
75428;BMP280;64008;55.612;37.698;2023-02-01T05:18:50;98469.28;;;13.20
75428;BMP280;64008;55.612;37.698;2023-02-01T05:21:16;98470.06;;;13.25
75428;BMP280;64008;55.612;37.698;2023-02-01T05:23:41;98459.72;;;13.24
75428;BMP280;64008;55.612;37.698;2023-02-01T05:26:40;98468.06;;;13.41
75428;BMP280;64008;55.612;37.698;2023-02-01T05:29:07;98462.88;;;13.26
75428;BMP280;64008;55.612;37.698;2023-02-01T05:31:33;98459.16;;;13.27
75428;BMP280;64008;55.612;37.698;2023-02-01T05:33:58;98466.59;;;13.25
75428;BMP280;64008;55.612;37.698;2023-02-01T05:36:27;98465.66;;;13.45
75428;BMP280;64008;55.612;37.698;2023-02-01T05:38:52;98461.31;;;13.59
75428;BMP280;64008;55.612;37.698;2023-02-01T05:41:18;98471.00;;;13.40
75428;BMP280;64008;55.612;37.698;2023-02-01T05:43:44;98472.16;;;13.28
75428;BMP280;64008;55.612;37.698;2023-02-01T05:46:09;98472.47;;;13.22
75428;BMP280;64008;55.612;37.698;2023-02-01T05:48:50;98469.66;;;13.08
75428;BMP280;64008;55.612;37.698;2023-02-01T05:51:18;98476.31;;;13.00
75428;BMP280;64008;55.612;37.698;2023-02-01T05:53:44;98475.53;;;13.00
75428;BMP280;64008;55.612;37.698;2023-02-01T05:56:09;98477.06;;;13.06
75428;BMP280;64008;55.612;37.698;2023-02-01T05:58:35;98480.16;;;13.18
75428;BMP280;64008;55.612;37.698;2023-02-01T06:01:02;98477.81;;;13.11
75428;BMP280;64008;55.612;37.698;2023-02-01T06:03:27;98476.16;;;13.26
75428;BMP280;64008;55.612;37.698;2023-02-01T06:05:53;98485.97;;;13.20
75428;BMP280;64008;55.612;37.698;2023-02-01T06:08:18;98484.97;;;13.16
75428;BMP280;64008;55.612;37.698;2023-02-01T06:10:44;98495.16;;;12.93
75428;BMP280;64008;55.612;37.698;2023-02-01T06:13:09;98485.28;;;13.04
75428;BMP280;64008;55.612;37.698;2023-02-01T06:15:35;98495.41;;;12.97
75428;BMP280;64008;55.612;37.698;2023-02-01T06:18:03;98496.72;;;13.00
75428;BMP280;64008;55.612;37.698;2023-02-01T06:20:28;98501.56;;;12.87
75428;BMP280;64008;55.612;37.698;2023-02-01T06:22:54;98508.13;;;13.00
75428;BMP280;64008;55.612;37.698;2023-02-01T06:25:19;98501.78;;;12.96
75428;BMP280;64008;55.612;37.698;2023-02-01T06:27:46;98506.59;;;12.89
75428;BMP280;64008;55.612;37.698;2023-02-01T06:30:12;98511.59;;;12.90
75428;BMP280;64008;55.612;37.698;2023-02-01T06:32:41;98508.59;;;13.07
75428;BMP280;64008;55.612;37.698;2023-02-01T06:35:08;98507.56;;;13.03
75428;BMP280;64008;55.612;37.698;2023-02-01T06:37:37;98509.94;;;13.05
75428;BMP280;64008;55.612;37.698;2023-02-01T06:40:03;98515.03;;;12.91
75428;BMP280;64008;55.612;37.698;2023-02-01T06:42:29;98511.56;;;13.01
75428;BMP280;64008;55.612;37.698;2023-02-01T06:44:54;98513.06;;;13.12
75428;BMP280;64008;55.612;37.698;2023-02-01T06:47:20;98517.94;;;13.00
75428;BMP280;64008;55.612;37.698;2023-02-01T06:49:45;98514.66;;;13.13
75428;BMP280;64008;55.612;37.698;2023-02-01T06:52:11;98507.59;;;12.98
75428;BMP280;64008;55.612;37.698;2023-02-01T06:54:36;98515.03;;;12.96
75428;BMP280;64008;55.612;37.698;2023-02-01T06:57:03;98520.59;;;13.00
75428;BMP280;64008;55.612;37.698;2023-02-01T06:59:28;98510.19;;;13.08
75428;BMP280;64008;55.612;37.698;2023-02-01T07:01:54;98511.94;;;12.79
75428;BMP280;64008;55.612;37.698;2023-02-01T07:04:19;98513.19;;;12.86
75428;BMP280;64008;55.612;37.698;2023-02-01T07:06:45;98516.13;;;12.85
75428;BMP280;64008;55.612;37.698;2023-02-01T07:09:13;98515.81;;;12.97
75428;BMP280;64008;55.612;37.698;2023-02-01T07:11:39;98520.84;;;12.93
75428;BMP280;64008;55.612;37.698;2023-02-01T07:14:09;98516.13;;;12.85
75428;BMP280;64008;55.612;37.698;2023-02-01T07:16:35;98517.00;;;13.20
75428;BMP280;64008;55.612;37.698;2023-02-01T07:19:00;98518.63;;;13.10
75428;BMP280;64008;55.612;37.698;2023-02-01T07:21:26;98525.00;;;13.15
75428;BMP280;64008;55.612;37.698;2023-02-01T07:23:53;98523.28;;;12.89
75428;BMP280;64008;55.612;37.698;2023-02-01T07:26:19;98537.00;;;13.02
75428;BMP280;64008;55.612;37.698;2023-02-01T07:28:45;98532.75;;;13.01
75428;BMP280;64008;55.612;37.698;2023-02-01T07:31:16;98540.72;;;13.01
75428;BMP280;64008;55.612;37.698;2023-02-01T07:33:44;98531.44;;;12.93
75428;BMP280;64008;55.612;37.698;2023-02-01T07:36:15;98545.53;;;12.93
75428;BMP280;64008;55.612;37.698;2023-02-01T07:38:43;98529.84;;;12.97
75428;BMP280;64008;55.612;37.698;2023-02-01T07:41:09;98535.38;;;13.06
75428;BMP280;64008;55.612;37.698;2023-02-01T07:43:35;98543.88;;;13.08
75428;BMP280;64008;55.612;37.698;2023-02-01T07:46:02;98537.75;;;13.07
75428;BMP280;64008;55.612;37.698;2023-02-01T07:48:29;98543.88;;;12.98
75428;BMP280;64008;55.612;37.698;2023-02-01T07:50:59;98544.63;;;13.13
75428;BMP280;64008;55.612;37.698;2023-02-01T07:53:25;98540.63;;;13.21
75428;BMP280;64008;55.612;37.698;2023-02-01T07:55:50;98539.00;;;13.25
75428;BMP280;64008;55.612;37.698;2023-02-01T07:58:16;98537.97;;;13.21
75428;BMP280;64008;55.612;37.698;2023-02-01T08:00:41;98535.72;;;13.39
75428;BMP280;64008;55.612;37.698;2023-02-01T08:03:26;98538.19;;;13.25
75428;BMP280;64008;55.612;37.698;2023-02-01T08:05:55;98539.66;;;13.02
75428;BMP280;64008;55.612;37.698;2023-02-01T08:08:24;98538.00;;;13.06
75428;BMP280;64008;55.612;37.698;2023-02-01T08:10:57;98528.66;;;13.24
75428;BMP280;64008;55.612;37.698;2023-02-01T08:13:22;98529.75;;;13.18
75428;BMP280;64008;55.612;37.698;2023-02-01T08:15:48;98532.09;;;13.29
75428;BMP280;64008;55.612;37.698;2023-02-01T08:18:15;98525.75;;;13.20
75428;BMP280;64008;55.612;37.698;2023-02-01T08:20:45;98532.31;;;13.33
75428;BMP280;64008;55.612;37.698;2023-02-01T08:23:12;98521.47;;;13.69
75428;BMP280;64008;55.612;37.698;2023-02-01T08:25:38;98525.75;;;13.94
75428;BMP280;64008;55.612;37.698;2023-02-01T08:28:05;98523.34;;;13.63
75428;BMP280;64008;55.612;37.698;2023-02-01T08:30:31;98532.09;;;13.98
75428;BMP280;64008;55.612;37.698;2023-02-01T08:32:58;98527.91;;;13.92
75428;BMP280;64008;55.612;37.698;2023-02-01T08:35:23;98519.84;;;13.73
75428;BMP280;64008;55.612;37.698;2023-02-01T08:37:52;98530.56;;;13.58
75428;BMP280;64008;55.612;37.698;2023-02-01T08:40:17;98529.44;;;13.69
75428;BMP280;64008;55.612;37.698;2023-02-01T08:42:44;98522.69;;;13.77
75428;BMP280;64008;55.612;37.698;2023-02-01T08:45:16;98523.28;;;14.03
75428;BMP280;64008;55.612;37.698;2023-02-01T08:47:42;98521.81;;;13.91
75428;BMP280;64008;55.612;37.698;2023-02-01T08:50:08;98527.72;;;14.12
75428;BMP280;64008;55.612;37.698;2023-02-01T08:52:34;98530.19;;;13.74
75428;BMP280;64008;55.612;37.698;2023-02-01T08:55:00;98530.31;;;13.88
75428;BMP280;64008;55.612;37.698;2023-02-01T08:57:25;98516.41;;;13.72
75428;BMP280;64008;55.612;37.698;2023-02-01T08:59:51;98517.78;;;14.23
75428;BMP280;64008;55.612;37.698;2023-02-01T09:02:17;98528.91;;;13.96
75428;BMP280;64008;55.612;37.698;2023-02-01T09:04:45;98528.78;;;13.82
75428;BMP280;64008;55.612;37.698;2023-02-01T09:07:11;98519.94;;;13.92
75428;BMP280;64008;55.612;37.698;2023-02-01T09:09:38;98528.13;;;13.95
75428;BMP280;64008;55.612;37.698;2023-02-01T09:12:04;98524.03;;;13.79
75428;BMP280;64008;55.612;37.698;2023-02-01T09:14:30;98516.78;;;13.90
75428;BMP280;64008;55.612;37.698;2023-02-01T09:16:56;98526.41;;;13.81
75428;BMP280;64008;55.612;37.698;2023-02-01T09:19:21;98522.41;;;14.12
75428;BMP280;64008;55.612;37.698;2023-02-01T09:21:47;98525.56;;;14.14
75428;BMP280;64008;55.612;37.698;2023-02-01T09:24:15;98526.00;;;14.22
75428;BMP280;64008;55.612;37.698;2023-02-01T09:26:40;98524.00;;;14.13
75428;BMP280;64008;55.612;37.698;2023-02-01T09:29:06;98519.16;;;13.91
75428;BMP280;64008;55.612;37.698;2023-02-01T09:31:40;98523.22;;;14.13
75428;BMP280;64008;55.612;37.698;2023-02-01T09:34:08;98526.41;;;13.81
75428;BMP280;64008;55.612;37.698;2023-02-01T09:36:34;98529.72;;;13.97
75428;BMP280;64008;55.612;37.698;2023-02-01T09:39:00;98515.88;;;13.70
75428;BMP280;64008;55.612;37.698;2023-02-01T09:41:43;98517.00;;;13.93
75428;BMP280;64008;55.612;37.698;2023-02-01T09:47:03;98516.38;;;14.31
75428;BMP280;64008;55.612;37.698;2023-02-01T09:49:43;98505.84;;;14.21
75428;BMP280;64008;55.612;37.698;2023-02-01T09:52:12;98509.09;;;14.18
75428;BMP280;64008;55.612;37.698;2023-02-01T09:54:48;98506.78;;;14.06
75428;BMP280;64008;55.612;37.698;2023-02-01T09:57:20;98504.88;;;14.11
75428;BMP280;64008;55.612;37.698;2023-02-01T09:59:51;98497.25;;;14.05
75428;BMP280;64008;55.612;37.698;2023-02-01T10:02:20;98497.94;;;14.15
75428;BMP280;64008;55.612;37.698;2023-02-01T10:04:47;98507.13;;;13.99
75428;BMP280;64008;55.612;37.698;2023-02-01T10:21:02;98482.50;;;13.93
75428;BMP280;64008;55.612;37.698;2023-02-01T10:26:20;98487.81;;;13.93
75428;BMP280;64008;55.612;37.698;2023-02-01T10:28:50;98490.50;;;13.88
75428;BMP280;64008;55.612;37.698;2023-02-01T10:31:17;98485.09;;;13.69
75428;BMP280;64008;55.612;37.698;2023-02-01T10:33:51;98480.78;;;13.79
75428;BMP280;64008;55.612;37.698;2023-02-01T10:36:29;98490.06;;;13.76
75428;BMP280;64008;55.612;37.698;2023-02-01T10:38:58;98490.84;;;13.77
75428;BMP280;64008;55.612;37.698;2023-02-01T10:41:26;98491.63;;;13.82
75428;BMP280;64008;55.612;37.698;2023-02-01T10:43:57;98479.53;;;14.00
75428;BMP280;64008;55.612;37.698;2023-02-01T10:46:23;98484.91;;;13.61
75428;BMP280;64008;55.612;37.698;2023-02-01T10:48:50;98492.59;;;13.62
75428;BMP280;64008;55.612;37.698;2023-02-01T10:51:29;98487.00;;;13.69
75428;BMP280;64008;55.612;37.698;2023-02-01T10:56:56;98485.34;;;13.73
75428;BMP280;64008;55.612;37.698;2023-02-01T10:59:24;98495.81;;;13.88
75428;BMP280;64008;55.612;37.698;2023-02-01T11:02:01;98486.13;;;14.03
75428;BMP280;64008;55.612;37.698;2023-02-01T11:04:37;98492.13;;;13.55
75428;BMP280;64008;55.612;37.698;2023-02-01T11:07:13;98491.75;;;13.67
75428;BMP280;64008;55.612;37.698;2023-02-01T11:09:41;98488.63;;;14.18
75428;BMP280;64008;55.612;37.698;2023-02-01T11:12:29;98486.59;;;14.34
75428;BMP280;64008;55.612;37.698;2023-02-01T11:15:22;98489.56;;;14.27
75428;BMP280;64008;55.612;37.698;2023-02-01T11:17:47;98482.19;;;14.00
75428;BMP280;64008;55.612;37.698;2023-02-01T11:20:18;98492.41;;;14.36
75428;BMP280;64008;55.612;37.698;2023-02-01T11:22:49;98484.84;;;14.00
75428;BMP280;64008;55.612;37.698;2023-02-01T11:25:18;98489.75;;;14.36
75428;BMP280;64008;55.612;37.698;2023-02-01T11:27:44;98483.28;;;13.94
75428;BMP280;64008;55.612;37.698;2023-02-01T11:30:16;98488.44;;;14.09
75428;BMP280;64008;55.612;37.698;2023-02-01T11:32:42;98491.81;;;14.15
75428;BMP280;64008;55.612;37.698;2023-02-01T11:35:15;98493.56;;;13.71
75428;BMP280;64008;55.612;37.698;2023-02-01T11:37:43;98501.66;;;14.14
75428;BMP280;64008;55.612;37.698;2023-02-01T11:43:51;98500.00;;;13.94
75428;BMP280;64008;55.612;37.698;2023-02-01T11:45:39;98499.56;;;13.82
75428;BMP280;64008;55.612;37.698;2023-02-01T11:48:15;98502.09;;;13.68
75428;BMP280;64008;55.612;37.698;2023-02-01T11:56:14;98503.19;;;13.67
75428;BMP280;64008;55.612;37.698;2023-02-01T12:15:26;98529.13;;;13.76
75428;BMP280;64008;55.612;37.698;2023-02-01T12:18:19;98529.75;;;13.57
75428;BMP280;64008;55.612;37.698;2023-02-01T12:29:35;98532.16;;;13.93
75428;BMP280;64008;55.612;37.698;2023-02-01T12:40:03;98537.72;;;14.21
75428;BMP280;64008;55.612;37.698;2023-02-01T12:42:40;98540.34;;;14.26
75428;BMP280;64008;55.612;37.698;2023-02-01T12:45:38;98543.25;;;13.95
75428;BMP280;64008;55.612;37.698;2023-02-01T12:50:41;98540.28;;;14.02
75428;BMP280;64008;55.612;37.698;2023-02-01T12:53:17;98547.81;;;14.24
75428;BMP280;64008;55.612;37.698;2023-02-01T12:55:52;98540.56;;;14.29
75428;BMP280;64008;55.612;37.698;2023-02-01T12:59:01;98547.78;;;13.94
75428;BMP280;64008;55.612;37.698;2023-02-01T13:04:18;98543.56;;;13.93
75428;BMP280;64008;55.612;37.698;2023-02-01T13:07:38;98544.03;;;13.95
75428;BMP280;64008;55.612;37.698;2023-02-01T13:09:55;98542.22;;;13.91
75428;BMP280;64008;55.612;37.698;2023-02-01T13:12:43;98542.09;;;13.77
75428;BMP280;64008;55.612;37.698;2023-02-01T13:15:29;98537.81;;;14.10
75428;BMP280;64008;55.612;37.698;2023-02-01T13:18:05;98541.81;;;13.79
75428;BMP280;64008;55.612;37.698;2023-02-01T13:20:38;98540.66;;;13.90
75428;BMP280;64008;55.612;37.698;2023-02-01T13:25:47;98542.59;;;14.08
75428;BMP280;64008;55.612;37.698;2023-02-01T13:28:28;98538.59;;;13.47
75428;BMP280;64008;55.612;37.698;2023-02-01T13:34:03;98539.56;;;13.62
75428;BMP280;64008;55.612;37.698;2023-02-01T13:42:29;98549.91;;;13.58
75428;BMP280;64008;55.612;37.698;2023-02-01T13:45:14;98541.34;;;13.71
75428;BMP280;64008;55.612;37.698;2023-02-01T13:47:43;98553.63;;;13.57
75428;BMP280;64008;55.612;37.698;2023-02-01T13:55:33;98549.06;;;13.68
75428;BMP280;64008;55.612;37.698;2023-02-01T13:58:02;98549.94;;;13.92
75428;BMP280;64008;55.612;37.698;2023-02-01T14:00:37;98549.25;;;13.77
75428;BMP280;64008;55.612;37.698;2023-02-01T14:03:10;98555.50;;;13.91
75428;BMP280;64008;55.612;37.698;2023-02-01T14:10:48;98555.09;;;14.08
75428;BMP280;64008;55.612;37.698;2023-02-01T14:23:42;98555.53;;;13.51
75428;BMP280;64008;55.612;37.698;2023-02-01T14:26:11;98555.03;;;13.44
75428;BMP280;64008;55.612;37.698;2023-02-01T14:28:52;98554.81;;;13.41
75428;BMP280;64008;55.612;37.698;2023-02-01T14:31:58;98567.91;;;13.66
75428;BMP280;64008;55.612;37.698;2023-02-01T14:44:47;98569.84;;;13.50
75428;BMP280;64008;55.612;37.698;2023-02-01T14:50:11;98568.25;;;13.94
75428;BMP280;64008;55.612;37.698;2023-02-01T14:52:50;98580.09;;;13.72
75428;BMP280;64008;55.612;37.698;2023-02-01T14:55:27;98573.22;;;14.01
75428;BMP280;64008;55.612;37.698;2023-02-01T14:57:56;98572.47;;;13.95
75428;BMP280;64008;55.612;37.698;2023-02-01T15:00:29;98571.16;;;13.58
75428;BMP280;64008;55.612;37.698;2023-02-01T15:05:57;98583.47;;;13.78
75428;BMP280;64008;55.612;37.698;2023-02-01T15:08:29;98579.16;;;13.53
75428;BMP280;64008;55.612;37.698;2023-02-01T15:11:00;98577.56;;;13.52
75428;BMP280;64008;55.612;37.698;2023-02-01T15:13:28;98586.44;;;13.71
75428;BMP280;64008;55.612;37.698;2023-02-01T15:16:00;98581.53;;;13.89
75428;BMP280;64008;55.612;37.698;2023-02-01T15:18:26;98594.34;;;13.42
75428;BMP280;64008;55.612;37.698;2023-02-01T15:21:02;98586.16;;;13.33
75428;BMP280;64008;55.612;37.698;2023-02-01T15:23:29;98583.22;;;13.40
75428;BMP280;64008;55.612;37.698;2023-02-01T15:25:55;98599.09;;;13.45
75428;BMP280;64008;55.612;37.698;2023-02-01T15:28:20;98592.78;;;13.36
75428;BMP280;64008;55.612;37.698;2023-02-01T15:31:02;98587.84;;;13.59
75428;BMP280;64008;55.612;37.698;2023-02-01T15:33:29;98594.34;;;13.42
75428;BMP280;64008;55.612;37.698;2023-02-01T15:36:11;98594.38;;;13.32
75428;BMP280;64008;55.612;37.698;2023-02-01T15:38:43;98597.47;;;13.44
75428;BMP280;64008;55.612;37.698;2023-02-01T15:41:15;98590.13;;;13.81
75428;BMP280;64008;55.612;37.698;2023-02-01T15:44:01;98595.50;;;14.05
75428;BMP280;64008;55.612;37.698;2023-02-01T15:46:35;98599.22;;;14.38
75428;BMP280;64008;55.612;37.698;2023-02-01T15:49:02;98590.16;;;13.76
75428;BMP280;64008;55.612;37.698;2023-02-01T15:51:29;98595.97;;;13.78
75428;BMP280;64008;55.612;37.698;2023-02-01T15:53:59;98604.34;;;13.50
75428;BMP280;64008;55.612;37.698;2023-02-01T15:56:28;98602.78;;;13.44
75428;BMP280;64008;55.612;37.698;2023-02-01T15:59:01;98596.38;;;13.56
75428;BMP280;64008;55.612;37.698;2023-02-01T16:01:28;98599.19;;;13.69
75428;BMP280;64008;55.612;37.698;2023-02-01T16:04:30;98599.16;;;13.25
75428;BMP280;64008;55.612;37.698;2023-02-01T16:06:58;98603.34;;;13.41
75428;BMP280;64008;55.612;37.698;2023-02-01T16:09:40;98598.78;;;13.52
75428;BMP280;64008;55.612;37.698;2023-02-01T16:12:30;98608.56;;;13.57
75428;BMP280;64008;55.612;37.698;2023-02-01T16:14:56;98598.69;;;13.67
75428;BMP280;64008;55.612;37.698;2023-02-01T16:17:22;98607.81;;;13.46
75428;BMP280;64008;55.612;37.698;2023-02-01T16:19:47;98602.63;;;13.75
75428;BMP280;64008;55.612;37.698;2023-02-01T16:22:15;98607.94;;;13.20
75428;BMP280;64008;55.612;37.698;2023-02-01T16:24:41;98614.00;;;13.31
75428;BMP280;64008;55.612;37.698;2023-02-01T16:27:08;98620.09;;;13.31
75428;BMP280;64008;55.612;37.698;2023-02-01T16:29:34;98612.16;;;13.26
75428;BMP280;64008;55.612;37.698;2023-02-01T16:31:59;98620.81;;;13.47
75428;BMP280;64008;55.612;37.698;2023-02-01T16:34:28;98616.28;;;13.53
75428;BMP280;64008;55.612;37.698;2023-02-01T16:36:54;98622.19;;;13.40